Time;durP1;ratioP1;P1;durP2;ratioP2;P2;SDS_P1;SDS_P2;PMS_P1;PMS_P2;Temp;Humidity;BMP_temperature;BMP_pressure;BME280_temperature;BME280_humidity;BME280_pressure;Samples;Min_cycle;Max_cycle;Signal;HPM_P1;HPM_P2
2022/01/08 00:01:40;;;;;;;37.75;19.83;;;;;;;;;;5071404;28;20035;-72
2022/01/08 00:04:07;;;;;;;32.28;19.98;;;;;;;;;;5071211;28;20040;-72
2022/01/08 00:06:33;;;;;;;43.80;22.38;;;;;;;;;;5071435;28;20025;-72
2022/01/08 00:08:59;;;;;;;44.45;20.55;;;;;;;;;;5071216;28;20021;-72
2022/01/08 00:11:27;;;;;;;41.85;21.48;;;;;;;;;;5071494;28;20031;-72
2022/01/08 00:13:53;;;;;;;31.63;18.83;;;;;;;;;;5071494;28;20052;-72
2022/01/08 00:16:19;;;;;;;33.90;20.65;;;;;;;;;;5071211;28;20502;-72
2022/01/08 00:18:46;;;;;;;34.35;19.52;;;;;;;;;;5080987;28;20024;-72
2022/01/08 00:21:12;;;;;;;36.25;20.00;;;;;;;;;;5091234;28;20028;-72
2022/01/08 00:23:38;;;;;;;54.22;24.75;;;;;;;;;;5091404;28;20031;-72
2022/01/08 00:26:04;;;;;;;47.83;22.60;;;;;;;;;;5091425;28;20445;-72
2022/01/08 00:28:30;;;;;;;39.17;21.40;;;;;;;;;;5091462;28;20051;-72
2022/01/08 00:30:56;;;;;;;44.45;24.27;;;;;;;;;;5091550;28;20024;-72
2022/01/08 00:33:22;;;;;;;40.03;20.98;;;;;;;;;;5091383;28;20024;-72
2022/01/08 00:35:48;;;;;;;44.30;21.90;;;;;;;;;;5091381;28;20027;-72
2022/01/08 00:38:15;;;;;;;42.90;23.35;;;;;;;;;;5086738;28;20459;-72
2022/01/08 00:40:41;;;;;;;39.22;22.33;;;;;;;;;;5091491;28;20162;-72
2022/01/08 00:43:07;;;;;;;36.85;20.85;;;;;;;;;;5072987;28;20052;-72
2022/01/08 00:45:33;;;;;;;45.08;23.17;;;;;;;;;;5095242;28;20024;-72
2022/01/08 00:47:59;;;;;;;41.50;21.98;;;;;;;;;;5095264;28;20039;-72
2022/01/08 00:50:25;;;;;;;43.42;21.77;;;;;;;;;;5095150;28;20434;-72
2022/01/08 00:52:51;;;;;;;46.53;22.92;;;;;;;;;;5095215;28;20017;-72
2022/01/08 00:55:17;;;;;;;42.80;22.42;;;;;;;;;;5095056;28;20117;-72
2022/01/08 00:57:43;;;;;;;48.33;23.95;;;;;;;;;;5094998;28;20051;-72
2022/01/08 01:00:12;;;;;;;41.72;21.02;;;;;;;;;;5094975;28;20379;-72
2022/01/08 01:02:38;;;;;;;42.72;22.88;;;;;;;;;;5076883;28;20539;-72
2022/01/08 01:05:05;;;;;;;45.60;22.80;;;;;;;;;;5094719;28;20028;-72
2022/01/08 01:07:31;;;;;;;49.40;23.67;;;;;;;;;;5086562;28;20020;-72
2022/01/08 01:09:57;;;;;;;53.95;25.30;;;;;;;;;;5087179;28;20024;-72
2022/01/08 01:12:23;;;;;;;48.13;24.40;;;;;;;;;;5074469;28;20021;-72
2022/01/08 01:14:49;;;;;;;44.75;23.60;;;;;;;;;;5074225;28;20386;-72
2022/01/08 01:17:15;;;;;;;40.80;22.98;;;;;;;;;;5074385;28;20775;-72
2022/01/08 01:19:41;;;;;;;45.53;23.80;;;;;;;;;;5091681;28;20493;-72
2022/01/08 01:22:08;;;;;;;46.60;23.40;;;;;;;;;;5094416;28;20024;-72
2022/01/08 01:24:36;;;;;;;51.28;24.23;;;;;;;;;;5076146;28;20063;-72
2022/01/08 01:27:26;;;;;;;44.83;24.73;;;;;;;;;;5094467;28;20051;-72
2022/01/08 01:30:04;;;;;;;47.00;22.60;;;;;;;;;;5094040;28;20044;-72
2022/01/08 01:47:00;;;;;;;50.22;24.52;;;;;;;;;;5093997;28;20055;-72
2022/01/08 01:48:59;;;;;;;46.42;23.85;;;;;;;;;;5094067;28;20034;-72
2022/01/08 01:51:25;;;;;;;44.70;24.70;;;;;;;;;;5093994;28;20373;-72
2022/01/08 01:53:51;;;;;;;48.55;23.38;;;;;;;;;;5093851;28;20128;-72
2022/01/08 01:56:18;;;;;;;47.45;24.15;;;;;;;;;;5093844;28;20024;-72
2022/01/08 01:58:45;;;;;;;51.38;22.85;;;;;;;;;;5094110;28;20070;-72
2022/01/08 02:01:11;;;;;;;53.03;26.02;;;;;;;;;;5093943;28;20485;-72
2022/01/08 02:03:37;;;;;;;54.40;24.30;;;;;;;;;;5093865;28;20032;-72
2022/01/08 02:06:03;;;;;;;42.90;22.48;;;;;;;;;;5093757;28;20470;-72
2022/01/08 02:08:30;;;;;;;44.50;23.77;;;;;;;;;;5093577;28;20028;-72
2022/01/08 02:10:56;;;;;;;42.35;24.15;;;;;;;;;;5078157;28;20055;-72
2022/01/08 02:13:22;;;;;;;61.97;26.17;;;;;;;;;;5073350;28;20386;-72
2022/01/08 02:15:53;;;;;;;41.60;24.00;;;;;;;;;;5073505;28;20024;-72
2022/01/08 02:18:20;;;;;;;51.00;24.75;;;;;;;;;;5078997;28;20020;-72
2022/01/08 02:20:46;;;;;;;40.65;22.67;;;;;;;;;;5093532;28;20028;-72
2022/01/08 02:23:12;;;;;;;45.75;24.30;;;;;;;;;;5093326;28;20462;-72
2022/01/08 02:25:38;;;;;;;46.60;24.15;;;;;;;;;;5093478;28;20035;-72
2022/01/08 02:28:04;;;;;;;44.17;24.65;;;;;;;;;;5093102;28;20464;-72
2022/01/08 02:30:31;;;;;;;44.63;24.20;;;;;;;;;;5093313;28;20038;-72
2022/01/08 02:32:57;;;;;;;52.08;25.42;;;;;;;;;;5093215;28;20024;-72
2022/01/08 02:35:23;;;;;;;45.90;24.42;;;;;;;;;;5093166;28;20035;-72
2022/01/08 02:37:50;;;;;;;48.28;24.38;;;;;;;;;;5088963;28;20024;-72
2022/01/08 02:40:18;;;;;;;45.55;23.70;;;;;;;;;;5070621;28;20079;-72
2022/01/08 02:42:53;;;;;;;45.55;23.15;;;;;;;;;;5072715;28;20502;-72
2022/01/08 02:45:20;;;;;;;45.83;22.40;;;;;;;;;;5072727;28;20544;-72
2022/01/08 02:47:46;;;;;;;50.00;23.58;;;;;;;;;;5072844;28;20027;-72
2022/01/08 02:50:12;;;;;;;48.97;25.10;;;;;;;;;;5072404;28;20032;-72
2022/01/08 02:52:42;;;;;;;47.17;23.63;;;;;;;;;;5072610;28;20067;-72
2022/01/08 02:55:08;;;;;;;41.45;23.48;;;;;;;;;;5072483;28;20424;-72
2022/01/08 02:57:34;;;;;;;53.00;25.23;;;;;;;;;;5072410;28;20435;-72
2022/01/08 03:00:00;;;;;;;42.28;22.25;;;;;;;;;;5072347;28;20037;-72
2022/01/08 03:02:27;;;;;;;47.05;25.73;;;;;;;;;;5072374;28;20063;-72
2022/01/08 03:04:54;;;;;;;43.38;23.38;;;;;;;;;;5072233;28;20139;-72
2022/01/08 03:07:20;;;;;;;48.08;23.42;;;;;;;;;;5071925;28;20028;-72
2022/01/08 03:09:55;;;;;;;49.03;22.90;;;;;;;;;;5077734;28;20035;-72
2022/01/08 03:12:21;;;;;;;41.13;23.08;;;;;;;;;;5092582;28;20050;-72
2022/01/08 03:14:47;;;;;;;45.25;23.98;;;;;;;;;;5092425;28;20028;-72
2022/01/08 03:17:13;;;;;;;49.90;24.52;;;;;;;;;;5092504;28;20034;-72
2022/01/08 03:19:39;;;;;;;41.40;21.63;;;;;;;;;;5092350;28;20024;-72
2022/01/08 03:22:06;;;;;;;43.40;21.25;;;;;;;;;;5092432;28;20401;-72
2022/01/08 03:24:32;;;;;;;44.65;22.15;;;;;;;;;;5083885;28;20501;-72
2022/01/08 03:26:58;;;;;;;40.08;22.08;;;;;;;;;;5092449;28;20035;-72
2022/01/08 03:29:24;;;;;;;38.88;21.08;;;;;;;;;;5092066;28;20024;-72
2022/01/08 03:31:50;;;;;;;43.45;22.88;;;;;;;;;;5092189;28;20039;-72
2022/01/08 03:34:16;;;;;;;44.90;21.25;;;;;;;;;;5092108;28;20069;-72
2022/01/08 03:36:42;;;;;;;45.85;22.45;;;;;;;;;;5092027;28;20535;-72
2022/01/08 03:39:09;;;;;;;40.63;21.65;;;;;;;;;;5078743;28;20064;-72
2022/01/08 03:41:35;;;;;;;50.15;22.40;;;;;;;;;;5071771;28;20028;-72
2022/01/08 03:44:02;;;;;;;45.58;21.17;;;;;;;;;;5071521;28;20447;-72
2022/01/08 03:46:32;;;;;;;43.63;22.00;;;;;;;;;;5071942;28;20109;-72
2022/01/08 03:51:28;;;;;;;47.33;23.67;;;;;;;;;;5072094;28;20141;-72
2022/01/08 03:53:54;;;;;;;41.67;21.67;;;;;;;;;;5053561;28;20481;-72
2022/01/08 03:56:20;;;;;;;45.58;21.33;;;;;;;;;;5071770;28;20029;-72
2022/01/08 03:58:46;;;;;;;40.42;20.52;;;;;;;;;;5071935;28;20115;-72
2022/01/08 04:01:12;;;;;;;46.05;23.05;;;;;;;;;;5071733;28;20410;-72
2022/01/08 04:03:38;;;;;;;41.85;21.73;;;;;;;;;;5071744;28;20025;-72
2022/01/08 04:06:04;;;;;;;42.55;22.73;;;;;;;;;;5053547;28;20463;-72
2022/01/08 04:08:30;;;;;;;49.47;24.17;;;;;;;;;;5053542;28;20085;-72
2022/01/08 04:10:56;;;;;;;51.20;24.30;;;;;;;;;;5071519;28;20033;-72
2022/01/08 04:13:26;;;;;;;52.60;24.20;;;;;;;;;;5053495;28;20113;-72
2022/01/08 04:15:57;;;;;;;49.15;24.08;;;;;;;;;;5053427;28;20021;-72
2022/01/08 04:18:23;;;;;;;44.33;23.98;;;;;;;;;;5078345;28;20015;-72
2022/01/08 04:23:21;;;;;;;46.92;23.92;;;;;;;;;;5095881;28;20059;-72
2022/01/08 04:25:48;;;;;;;45.53;22.25;;;;;;;;;;5095685;28;20473;-72
2022/01/08 04:28:14;;;;;;;56.35;24.40;;;;;;;;;;5095535;28;20374;-72
2022/01/08 04:30:40;;;;;;;44.78;22.08;;;;;;;;;;5095672;28;20024;-72
2022/01/08 04:33:10;;;;;;;51.13;23.48;;;;;;;;;;5095405;28;20020;-72
2022/01/08 04:35:36;;;;;;;42.63;20.10;;;;;;;;;;5095393;28;20419;-72
2022/01/08 04:38:02;;;;;;;57.60;23.70;;;;;;;;;;5087506;28;20024;-72
2022/01/08 04:40:28;;;;;;;44.58;22.23;;;;;;;;;;5074822;28;20020;-72
2022/01/08 04:42:54;;;;;;;42.25;21.92;;;;;;;;;;5074488;28;20089;-72
2022/01/08 04:45:22;;;;;;;53.15;22.38;;;;;;;;;;5074769;28;20482;-72
2022/01/08 04:47:48;;;;;;;46.75;23.05;;;;;;;;;;5074983;28;20138;-72
2022/01/08 04:50:14;;;;;;;43.25;20.75;;;;;;;;;;5074911;28;20029;-72
2022/01/08 04:52:41;;;;;;;46.38;23.55;;;;;;;;;;5074997;28;20024;-72
2022/01/08 04:55:07;;;;;;;41.35;21.02;;;;;;;;;;5074688;28;20095;-72
2022/01/08 04:57:33;;;;;;;53.38;23.60;;;;;;;;;;5074669;28;20362;-72
2022/01/08 04:59:59;;;;;;;52.30;22.45;;;;;;;;;;5074530;28;20455;-72
2022/01/08 05:02:25;;;;;;;50.70;24.13;;;;;;;;;;5074837;28;20032;-72
2022/01/08 05:04:51;;;;;;;51.15;22.67;;;;;;;;;;5074664;28;20024;-72
2022/01/08 05:07:17;;;;;;;49.42;23.45;;;;;;;;;;5074730;28;20035;-73
2022/01/08 05:09:43;;;;;;;50.70;22.20;;;;;;;;;;5079538;28;20040;-72
2022/01/08 05:12:09;;;;;;;42.65;21.67;;;;;;;;;;5094794;28;20028;-72
2022/01/08 05:14:35;;;;;;;48.42;23.27;;;;;;;;;;5094661;28;20020;-72
2022/01/08 05:17:02;;;;;;;54.58;23.52;;;;;;;;;;5094928;28;20077;-72
2022/01/08 05:19:41;;;;;;;51.78;23.52;;;;;;;;;;5094541;28;20024;-72
2022/01/08 05:22:18;;;;;;;46.65;23.55;;;;;;;;;;5094696;28;20027;-74
2022/01/08 05:24:44;;;;;;;42.42;21.05;;;;;;;;;;5094359;28;20023;-72
2022/01/08 05:27:15;;;;;;;48.03;22.42;;;;;;;;;;5094491;28;20028;-72
2022/01/08 05:29:41;;;;;;;38.28;21.50;;;;;;;;;;5093696;28;20016;-72
2022/01/08 05:32:08;;;;;;;42.67;21.45;;;;;;;;;;5094577;28;20054;-74
2022/01/08 05:34:35;;;;;;;44.88;21.52;;;;;;;;;;5094211;28;20293;-73
2022/01/08 05:37:01;;;;;;;56.10;22.48;;;;;;;;;;5094463;28;20121;-72
2022/01/08 05:39:30;;;;;;;44.70;21.88;;;;;;;;;;5078383;28;20373;-72
2022/01/08 05:41:56;;;;;;;52.65;22.30;;;;;;;;;;5073740;28;20020;-72
2022/01/08 05:44:22;;;;;;;44.20;20.50;;;;;;;;;;5073696;28;20028;-74
2022/01/08 05:46:48;;;;;;;48.85;20.58;;;;;;;;;;5074056;28;20035;-72
2022/01/08 05:49:15;;;;;;;49.63;22.27;;;;;;;;;;5055486;28;20025;-73
2022/01/08 05:51:41;;;;;;;45.70;23.27;;;;;;;;;;5073900;28;20017;-73
2022/01/08 05:54:07;;;;;;;47.05;21.88;;;;;;;;;;5073716;28;20052;-72
2022/01/08 05:56:33;;;;;;;45.05;20.58;;;;;;;;;;5055632;28;20025;-73
2022/01/08 05:58:59;;;;;;;42.83;20.60;;;;;;;;;;5073919;28;20044;-72
2022/01/08 06:01:25;;;;;;;46.63;20.92;;;;;;;;;;5073347;28;20032;-72
2022/01/08 06:03:51;;;;;;;47.75;21.45;;;;;;;;;;5073563;28;20036;-72
2022/01/08 06:06:17;;;;;;;50.60;22.10;;;;;;;;;;5073312;28;20031;-72
2022/01/08 06:08:43;;;;;;;51.53;20.52;;;;;;;;;;5073246;28;20029;-73
2022/01/08 06:11:09;;;;;;;47.42;21.35;;;;;;;;;;5073161;28;20111;-73
2022/01/08 06:13:35;;;;;;;39.28;20.00;;;;;;;;;;5073097;28;20021;-74
2022/01/08 06:16:01;;;;;;;49.92;20.83;;;;;;;;;;5073317;28;20475;-74
2022/01/08 06:18:28;;;;;;;43.92;21.17;;;;;;;;;;5080127;28;20024;-74
2022/01/08 06:20:55;;;;;;;41.45;19.42;;;;;;;;;;5074998;28;20032;-74
2022/01/08 06:23:22;;;;;;;41.15;20.15;;;;;;;;;;5075184;28;20402;-74
2022/01/08 06:25:48;;;;;;;45.00;18.63;;;;;;;;;;5093253;28;20032;-74
2022/01/08 06:28:15;;;;;;;42.70;20.08;;;;;;;;;;5075089;28;20374;-74
2022/01/08 06:30:41;;;;;;;43.00;17.52;;;;;;;;;;5075188;28;20027;-74
2022/01/08 06:33:07;;;;;;;44.38;18.08;;;;;;;;;;5075055;28;20485;-74
2022/01/08 06:35:33;;;;;;;33.40;15.48;;;;;;;;;;5093303;28;20111;-74
2022/01/08 06:37:59;;;;;;;31.58;15.80;;;;;;;;;;5086301;28;20021;-74
2022/01/08 06:40:25;;;;;;;42.80;16.67;;;;;;;;;;5071725;28;20056;-74
2022/01/08 06:42:51;;;;;;;33.47;15.70;;;;;;;;;;5072003;28;20106;-74
2022/01/08 06:45:17;;;;;;;31.95;15.45;;;;;;;;;;5061562;28;20020;-71
2022/01/08 06:47:45;;;;;;;41.88;16.45;;;;;;;;;;5103844;28;20027;-74
2022/01/08 06:50:12;;;;;;;33.72;15.95;;;;;;;;;;5103605;28;20027;-73
2022/01/08 06:52:38;;;;;;;32.88;14.23;;;;;;;;;;5101154;28;20045;-72
2022/01/08 06:55:05;;;;;;;43.58;14.55;;;;;;;;;;5100881;28;20107;-74
2022/01/08 06:57:34;;;;;;;35.83;13.73;;;;;;;;;;5088347;28;20103;-74
2022/01/08 07:00:04;;;;;;;32.25;13.52;;;;;;;;;;5102473;28;20134;-71
2022/01/08 07:02:30;;;;;;;30.38;13.60;;;;;;;;;;5102653;28;20030;-73
2022/01/08 07:04:56;;;;;;;32.00;12.05;;;;;;;;;;5102396;28;20055;-73
2022/01/08 07:07:23;;;;;;;33.20;14.13;;;;;;;;;;5104070;28;20099;-74
2022/01/08 07:09:49;;;;;;;28.20;12.23;;;;;;;;;;5100900;28;20461;-74
2022/01/08 07:12:15;;;;;;;26.08;10.73;;;;;;;;;;5100686;28;20784;-74
2022/01/08 07:14:41;;;;;;;26.52;10.50;;;;;;;;;;5103287;28;20376;-73
2022/01/08 07:17:10;;;;;;;33.65;11.10;;;;;;;;;;5103990;28;20454;-73
2022/01/08 07:19:36;;;;;;;35.55;11.63;;;;;;;;;;5103973;28;20043;-73
2022/01/08 07:22:03;;;;;;;25.52;10.82;;;;;;;;;;5101104;28;20450;-73
2022/01/08 07:24:29;;;;;;;29.05;11.30;;;;;;;;;;5098367;28;20436;-73
2022/01/08 07:26:55;;;;;;;31.85;11.35;;;;;;;;;;5102094;28;20476;-73
2022/01/08 07:29:21;;;;;;;29.17;11.05;;;;;;;;;;5100133;28;20447;-73
2022/01/08 07:31:47;;;;;;;28.27;11.05;;;;;;;;;;5100926;28;20031;-74
2022/01/08 07:34:14;;;;;;;33.65;12.48;;;;;;;;;;5102010;28;20410;-73
2022/01/08 07:36:40;;;;;;;30.73;12.38;;;;;;;;;;5102359;28;20051;-73
2022/01/08 07:39:06;;;;;;;29.92;11.63;;;;;;;;;;5081932;28;20024;-74
2022/01/08 07:41:32;;;;;;;29.85;12.32;;;;;;;;;;5073694;28;20040;-72
2022/01/08 07:43:58;;;;;;;40.28;14.20;;;;;;;;;;5092023;28;20048;-73
2022/01/08 07:46:24;;;;;;;42.20;14.52;;;;;;;;;;5100037;28;20485;-73
2022/01/08 07:48:50;;;;;;;39.42;14.45;;;;;;;;;;5104841;28;20023;-73
2022/01/08 07:51:16;;;;;;;36.20;14.35;;;;;;;;;;5105189;28;20094;-73
2022/01/08 07:53:42;;;;;;;35.55;15.50;;;;;;;;;;5104153;28;20467;-73
2022/01/08 07:56:08;;;;;;;32.50;14.35;;;;;;;;;;5104966;28;20430;-74
2022/01/08 07:58:34;;;;;;;36.72;14.48;;;;;;;;;;5105306;28;20027;-73
2022/01/08 08:01:00;;;;;;;46.70;16.25;;;;;;;;;;5079805;28;20020;-72
2022/01/08 08:03:26;;;;;;;43.05;15.68;;;;;;;;;;5097484;28;20024;-74
2022/01/08 08:05:52;;;;;;;45.95;18.10;;;;;;;;;;5097101;28;20332;-74
2022/01/08 08:08:19;;;;;;;44.72;18.42;;;;;;;;;;5097070;28;20036;-74
2022/01/08 08:10:50;;;;;;;45.63;16.95;;;;;;;;;;5099867;28;20016;-74
2022/01/08 08:13:22;;;;;;;50.28;16.85;;;;;;;;;;5083081;28;20016;-73
2022/01/08 08:15:48;;;;;;;44.45;18.25;;;;;;;;;;5100331;28;20012;-74
2022/01/08 08:18:15;;;;;;;38.30;18.30;;;;;;;;;;5101652;28;20016;-73
2022/01/08 08:20:41;;;;;;;50.00;21.88;;;;;;;;;;5081293;28;20019;-74
2022/01/08 08:23:07;;;;;;;49.90;23.00;;;;;;;;;;5102342;28;20404;-73
2022/01/08 08:25:33;;;;;;;45.88;19.63;;;;;;;;;;5100925;28;20358;-72
2022/01/08 08:27:59;;;;;;;46.42;20.67;;;;;;;;;;5100814;28;20111;-73
2022/01/08 08:30:26;;;;;;;46.15;19.35;;;;;;;;;;5102156;28;20081;-74
2022/01/08 08:32:52;;;;;;;44.08;19.70;;;;;;;;;;5083839;28;20019;-74
2022/01/08 08:35:19;;;;;;;53.03;19.98;;;;;;;;;;5106819;28;20028;-73
2022/01/08 08:37:45;;;;;;;56.08;21.95;;;;;;;;;;5081963;28;20492;-73
2022/01/08 08:40:12;;;;;;;44.75;20.75;;;;;;;;;;5099804;28;20016;-73
2022/01/08 08:42:38;;;;;;;40.70;20.27;;;;;;;;;;5101479;28;20043;-73
2022/01/08 08:45:05;;;;;;;47.42;21.52;;;;;;;;;;5086266;28;20030;-73
2022/01/08 08:47:32;;;;;;;53.10;23.73;;;;;;;;;;5111725;28;20020;-74
2022/01/08 08:49:58;;;;;;;53.65;21.40;;;;;;;;;;5111326;28;20055;-72
2022/01/08 08:52:24;;;;;;;46.58;23.60;;;;;;;;;;5111566;28;20454;-72
2022/01/08 08:54:50;;;;;;;56.50;27.27;;;;;;;;;;5111505;28;20405;-72
2022/01/08 08:57:16;;;;;;;54.45;24.65;;;;;;;;;;5111531;28;20027;-72
2022/01/08 08:59:42;;;;;;;57.92;26.98;;;;;;;;;;5087000;28;20490;-71
2022/01/08 09:02:09;;;;;;;66.53;32.63;;;;;;;;;;5091018;28;20059;-72
2022/01/08 09:04:36;;;;;;;71.68;33.55;;;;;;;;;;5091498;28;20115;-72
2022/01/08 09:07:03;;;;;;;60.72;35.10;;;;;;;;;;5094794;28;20085;-72
2022/01/08 09:09:29;;;;;;;44.30;25.17;;;;;;;;;;5094111;28;20024;-72
2022/01/08 09:11:55;;;;;;;42.60;23.17;;;;;;;;;;5094515;28;20052;-71
2022/01/08 09:14:21;;;;;;;41.30;22.42;;;;;;;;;;5099550;28;20032;-75
2022/01/08 09:16:52;;;;;;;41.35;22.92;;;;;;;;;;5094532;28;20078;-72
2022/01/08 09:19:18;;;;;;;42.67;23.55;;;;;;;;;;5091443;28;20028;-73
2022/01/08 09:21:45;;;;;;;48.95;24.48;;;;;;;;;;5094488;28;20020;-73
2022/01/08 09:24:12;;;;;;;41.00;20.90;;;;;;;;;;5094147;28;20049;-73
2022/01/08 09:26:38;;;;;;;37.55;21.90;;;;;;;;;;5094243;28;20059;-72
2022/01/08 09:29:05;;;;;;;43.30;23.25;;;;;;;;;;5093993;28;20097;-73
2022/01/08 09:31:32;;;;;;;51.95;26.10;;;;;;;;;;5094302;28;20049;-73
2022/01/08 09:33:58;;;;;;;46.95;22.50;;;;;;;;;;5093061;28;20477;-72
2022/01/08 09:36:24;;;;;;;48.08;23.38;;;;;;;;;;5075024;28;20099;-73
2022/01/08 09:38:51;;;;;;;42.08;21.05;;;;;;;;;;5082383;28;20055;-73
2022/01/08 09:41:17;;;;;;;64.95;27.38;;;;;;;;;;5073067;28;20450;-73
2022/01/08 09:43:43;;;;;;;54.05;26.58;;;;;;;;;;5073175;28;20052;-73
2022/01/08 09:46:10;;;;;;;47.35;23.42;;;;;;;;;;5073659;28;20033;-72
2022/01/08 09:48:36;;;;;;;50.22;22.95;;;;;;;;;;5073412;28;20028;-73
2022/01/08 09:51:02;;;;;;;51.40;22.35;;;;;;;;;;5073465;28;20021;-73
2022/01/08 09:53:28;;;;;;;62.88;26.83;;;;;;;;;;5073385;28;20351;-73
2022/01/08 09:55:54;;;;;;;56.15;25.17;;;;;;;;;;5073508;28;20017;-73
2022/01/08 09:58:20;;;;;;;49.53;24.00;;;;;;;;;;5073403;28;20024;-73
2022/01/08 10:00:47;;;;;;;62.53;27.20;;;;;;;;;;5073333;28;20021;-73
2022/01/08 10:03:23;;;;;;;49.67;24.88;;;;;;;;;;5073331;28;20017;-73
2022/01/08 10:05:50;;;;;;;43.20;23.35;;;;;;;;;;5073266;28;20407;-73
2022/01/08 10:08:22;;;;;;;59.15;30.63;;;;;;;;;;5073055;28;20020;-73
2022/01/08 10:10:48;;;;;;;;;;;;;;;;;;5087824;28;20781;-73
2022/01/08 10:13:22;;;;;;;37.03;21.13;;;;;;;;;;5093335;28;20007;-73
2022/01/08 10:18:35;;;;;;;43.85;22.48;;;;;;;;;;5093235;28;20039;-73
2022/01/08 10:21:14;;;;;;;47.10;24.27;;;;;;;;;;5093087;28;20095;-73
2022/01/08 10:23:43;;;;;;;38.25;22.13;;;;;;;;;;5058452;28;20425;-73
2022/01/08 10:26:10;;;;;;;39.67;22.33;;;;;;;;;;5093191;28;20498;-73
2022/01/08 10:28:45;;;;;;;38.63;21.77;;;;;;;;;;5092870;28;20028;-73
2022/01/08 10:31:28;;;;;;;42.00;21.80;;;;;;;;;;5092773;28;20450;-73
2022/01/08 10:33:54;;;;;;;40.90;21.27;;;;;;;;;;5092817;28;20024;-73
2022/01/08 10:36:21;;;;;;;38.40;20.05;;;;;;;;;;5093007;28;20024;-73
2022/01/08 10:38:52;;;;;;;38.35;21.90;;;;;;;;;;5082416;28;20025;-73
2022/01/08 10:41:18;;;;;;;40.38;20.67;;;;;;;;;;5072451;28;20021;-73
2022/01/08 10:43:46;;;;;;;42.40;21.48;;;;;;;;;;5071992;28;20495;-73
2022/01/08 10:46:13;;;;;;;34.72;18.13;;;;;;;;;;5072538;28;20029;-73
2022/01/08 10:48:42;;;;;;;36.65;18.33;;;;;;;;;;5072259;28;20531;-73
2022/01/08 10:51:13;;;;;;;34.50;17.67;;;;;;;;;;5072532;28;20040;-73
2022/01/08 10:53:55;;;;;;;34.22;15.32;;;;;;;;;;5072424;28;20437;-73
2022/01/08 10:56:25;;;;;;;32.80;15.68;;;;;;;;;;5072144;28;20078;-73
2022/01/08 10:58:54;;;;;;;25.85;14.75;;;;;;;;;;5072326;28;20025;-73
2022/01/08 11:01:39;;;;;;;27.65;14.95;;;;;;;;;;5072345;28;20487;-73
2022/01/08 11:04:07;;;;;;;32.33;14.95;;;;;;;;;;5071930;28;20029;-73
2022/01/08 11:06:33;;;;;;;31.35;14.60;;;;;;;;;;5072162;28;20807;-73
2022/01/08 11:09:00;;;;;;;29.30;14.48;;;;;;;;;;5071688;28;20360;-73
2022/01/08 11:11:30;;;;;;;27.50;13.18;;;;;;;;;;5091516;28;20377;-73
2022/01/08 11:14:04;;;;;;;29.17;13.45;;;;;;;;;;5092156;28;20012;-73
2022/01/08 11:16:30;;;;;;;28.85;13.02;;;;;;;;;;5073874;28;20020;-73
2022/01/08 11:18:56;;;;;;;23.42;11.98;;;;;;;;;;5092169;28;20485;-73
2022/01/08 11:21:23;;;;;;;27.13;13.77;;;;;;;;;;5092106;28;20539;-73
2022/01/08 11:23:49;;;;;;;32.92;15.60;;;;;;;;;;5091789;28;20086;-73
2022/01/08 11:26:15;;;;;;;38.45;21.63;;;;;;;;;;5092050;28;20032;-73
2022/01/08 11:28:45;;;;;;;33.40;11.93;;;;;;;;;;5091273;28;20024;-73
2022/01/08 11:31:12;;;;;;;25.95;12.80;;;;;;;;;;5091969;28;20031;-73
2022/01/08 11:33:43;;;;;;;24.30;13.25;;;;;;;;;;5091911;28;20012;-73
2022/01/08 11:36:14;;;;;;;26.60;13.27;;;;;;;;;;5091960;28;20024;-73
2022/01/08 11:38:43;;;;;;;29.73;14.38;;;;;;;;;;5091669;28;20018;-73
2022/01/08 11:41:09;;;;;;;20.77;11.07;;;;;;;;;;5091850;28;20107;-73
2022/01/08 11:43:36;;;;;;;26.52;13.60;;;;;;;;;;5091610;28;20066;-73
2022/01/08 11:46:07;;;;;;;26.25;12.52;;;;;;;;;;5091789;28;20016;-73
2022/01/08 11:48:38;;;;;;;30.40;13.13;;;;;;;;;;5091728;28;20157;-73
2022/01/08 11:51:06;;;;;;;26.73;12.00;;;;;;;;;;5091852;28;20028;-73
2022/01/08 11:53:33;;;;;;;27.73;11.75;;;;;;;;;;5091631;28;20381;-73
2022/01/08 11:56:06;;;;;;;28.10;11.82;;;;;;;;;;5091716;28;20020;-73
2022/01/08 11:58:34;;;;;;;28.60;12.20;;;;;;;;;;5091478;28;20027;-73
2022/01/08 12:01:00;;;;;;;21.50;12.05;;;;;;;;;;5091767;28;20028;-73
2022/01/08 12:03:30;;;;;;;32.25;12.60;;;;;;;;;;5091670;28;20085;-73
2022/01/08 12:05:56;;;;;;;26.67;12.48;;;;;;;;;;5073420;28;20421;-73
2022/01/08 12:08:45;;;;;;;28.67;12.13;;;;;;;;;;5091593;28;20126;-73
2022/01/08 12:11:11;;;;;;;29.05;13.35;;;;;;;;;;5069871;28;20063;-73
2022/01/08 12:13:47;;;;;;;30.40;13.93;;;;;;;;;;5071349;28;20024;-73
2022/01/08 12:16:33;;;;;;;24.98;11.70;;;;;;;;;;5053654;28;20039;-73
2022/01/08 12:18:59;;;;;;;28.75;13.15;;;;;;;;;;5071399;28;20016;-73
2022/01/08 12:21:32;;;;;;;29.17;12.77;;;;;;;;;;5071222;28;20435;-73
2022/01/08 12:23:59;;;;;;;24.42;11.82;;;;;;;;;;5071189;28;20025;-73
2022/01/08 12:26:25;;;;;;;27.15;12.85;;;;;;;;;;5071469;28;20028;-73
2022/01/08 12:28:53;;;;;;;25.05;13.00;;;;;;;;;;5071129;28;20028;-73
2022/01/08 12:31:22;;;;;;;26.67;12.93;;;;;;;;;;5071396;28;20020;-73
2022/01/08 12:34:10;;;;;;;23.95;12.65;;;;;;;;;;5071226;28;20012;-73
2022/01/08 12:36:50;;;;;;;29.10;12.38;;;;;;;;;;5071142;28;20335;-72
2022/01/08 12:39:16;;;;;;;24.02;11.75;;;;;;;;;;5085336;28;20027;-73
2022/01/08 12:41:42;;;;;;;24.65;11.73;;;;;;;;;;5095577;28;20027;-73
2022/01/08 12:44:27;;;;;;;23.20;14.02;;;;;;;;;;5094902;28;20101;-73
2022/01/08 12:46:53;;;;;;;22.77;11.35;;;;;;;;;;5076982;28;20024;-73
2022/01/08 12:49:19;;;;;;;23.38;11.93;;;;;;;;;;5094996;28;20036;-73
2022/01/08 12:51:48;;;;;;;24.27;11.35;;;;;;;;;;5095039;28;20054;-73
2022/01/08 12:54:16;;;;;;;24.23;9.90;;;;;;;;;;5094853;28;20114;-73
2022/01/08 12:56:49;;;;;;;28.15;11.68;;;;;;;;;;5094957;28;20016;-73
2022/01/08 12:59:15;;;;;;;18.60;9.77;;;;;;;;;;5094701;28;20580;-73
2022/01/08 13:01:45;;;;;;;24.75;10.77;;;;;;;;;;5094954;28;20152;-72
2022/01/08 13:04:16;;;;;;;19.63;9.45;;;;;;;;;;5094377;28;20028;-72
2022/01/08 13:06:42;;;;;;;21.45;9.98;;;;;;;;;;5094754;28;20119;-73
2022/01/08 13:09:09;;;;;;;20.77;9.10;;;;;;;;;;5085274;28;20110;-73
2022/01/08 13:11:36;;;;;;;21.95;9.00;;;;;;;;;;5107523;28;20457;-73
2022/01/08 13:14:04;;;;;;;19.88;9.38;;;;;;;;;;5106700;28;20023;-73
2022/01/08 13:16:36;;;;;;;19.08;7.40;;;;;;;;;;5095610;28;20031;-73
2022/01/08 13:19:07;;;;;;;18.90;8.00;;;;;;;;;;5095668;28;20366;-73
2022/01/08 13:21:36;;;;;;;23.35;8.77;;;;;;;;;;5095653;28;20035;-73
2022/01/08 13:24:16;;;;;;;19.50;7.40;;;;;;;;;;5095620;28;20024;-73
2022/01/08 13:26:43;;;;;;;19.10;7.90;;;;;;;;;;5095675;28;20020;-73
2022/01/08 13:29:22;;;;;;;11.85;5.95;;;;;;;;;;5077166;28;20053;-73
2022/01/08 13:31:52;;;;;;;14.90;6.57;;;;;;;;;;5108047;28;20415;-73
2022/01/08 13:34:19;;;;;;;17.25;6.70;;;;;;;;;;5112255;28;20141;-73
2022/01/08 13:36:55;;;;;;;15.60;7.82;;;;;;;;;;5112018;28;20016;-73
2022/01/08 13:39:35;;;;;;;17.60;6.38;;;;;;;;;;5103988;28;20028;-72
2022/01/08 13:42:10;;;;;;;13.80;6.03;;;;;;;;;;5105230;28;20058;-70
2022/01/08 13:44:36;;;;;;;14.98;6.38;;;;;;;;;;5095862;28;20408;-73
2022/01/08 13:47:02;;;;;;;12.93;5.75;;;;;;;;;;5114476;28;20735;-73
2022/01/08 13:49:28;;;;;;;12.02;5.80;;;;;;;;;;5114108;28;20035;-73
2022/01/08 13:51:56;;;;;;;12.63;5.00;;;;;;;;;;5113976;28;20369;-73
2022/01/08 13:54:32;;;;;;;8.43;4.93;;;;;;;;;;5114122;28;20016;-73
2022/01/08 13:57:10;;;;;;;9.13;4.53;;;;;;;;;;5113827;28;20048;-73
2022/01/08 13:59:36;;;;;;;12.55;4.55;;;;;;;;;;5114243;28;20039;-73
2022/01/08 14:02:02;;;;;;;10.48;4.57;;;;;;;;;;5114154;28;20031;-73
2022/01/08 14:04:29;;;;;;;13.10;4.25;;;;;;;;;;5114038;28;20107;-73
2022/01/08 14:06:59;;;;;;;7.93;4.25;;;;;;;;;;5114156;28;20027;-73
2022/01/08 14:09:25;;;;;;;10.55;3.75;;;;;;;;;;5108425;28;20023;-72
2022/01/08 14:12:08;;;;;;;8.07;4.22;;;;;;;;;;5073454;28;20033;-73
2022/01/08 14:14:41;;;;;;;9.68;3.08;;;;;;;;;;5073068;28;20028;-73
2022/01/08 14:17:15;;;;;;;9.98;2.58;;;4.40;99.90;;;;;;5073204;28;20386;-73
2022/01/08 14:19:40;;;;;;;8.43;2.70;;;4.30;99.90;;;;;;5073174;28;20025;-73
2022/01/08 14:22:07;;;;;;;12.98;3.65;;;4.30;99.90;;;;;;5093305;28;20019;-73
2022/01/08 14:24:38;;;;;;;9.55;3.13;;;4.20;99.90;;;;;;5105222;28;20020;-73
2022/01/08 14:27:08;;;;;;;11.23;3.75;;;4.20;99.90;;;;;;5097453;28;20019;-72
2022/01/08 14:29:39;;;;;;;10.05;3.30;;;4.20;99.90;;;;;;5105371;28;20020;-72
2022/01/08 14:32:08;;;;;;;14.93;7.00;;;4.20;99.90;;;;;;5096268;28;20039;-72
2022/01/08 14:34:56;;;;;;;10.02;4.88;;;4.10;99.90;;;;;;5097990;28;20023;-73
2022/01/08 14:37:29;;;;;;;7.55;3.80;;;4.10;99.90;;;;;;5095707;28;20129;-73
2022/01/08 14:39:55;;;;;;;6.85;3.00;;;4.10;99.90;;;;;;5096531;28;20043;-73
2022/01/08 14:42:27;;;;;;;7.43;2.95;;;;;;;;;;5094481;28;20027;-73